Climatologie pour Saint-Brevin les Pins
Jour • Résumé pour avril 7, 2017 Système :  Métrique    Anglais   Mixte
« - 1 jour
+ 1 jour »
Jour Semaine Mois Année Personnalisé
  Maximum : Minimum : Moyenne :
Température sous abri : -17.8 °C -15.7 °C -11.2 °C
Point de rosée : -17.8 °C -16.1 °C -13.8 °C
Humidité : Humidity % 50 % 75 %
Vitesse du vent : 0 km/h 0 km/h 8.7 km/h
Rafale : 0 km/h - -
Direction :- - ENE
Pression : 0 hPa 34625.2 hPa -
Précipitations : 0 mm    
Historical Graphs
 
 
Tableau de données pour avril 7, 2017
Heure Tempé Pt rosée Pression Vent Vitesse Rafale Humidité Taux pluie (/hr) Soleil
-17.8 °C -17.8 °C 0 hPa Calm     Humidity % 0 mm SolarRadiationWatts/m^2 W/m2 Conditions
00:00 -12.4 °C -13.8 °C 34797.9 hPa NNE 7.7 km/h 20.8 km/h 84 % 0 mm 0 W/m2
00:05 -12.4 °C -13.7 °C 34797.9 hPa NE 12.9 km/h 18.2 km/h 85 % 0 mm 0 W/m2
00:10 -12.4 °C -13.7 °C 34797.9 hPa NNE 10.3 km/h 20.8 km/h 85 % 0 mm 0 W/m2
00:15 -12.4 °C -13.7 °C 34797.9 hPa NNE 5.1 km/h 20.8 km/h 85 % 0 mm 0 W/m2
00:20 -12.5 °C -13.8 °C 34797.9 hPa NE 10.3 km/h 18.2 km/h 85 % 0 mm 0 W/m2
00:25 -12.6 °C -13.8 °C 34797.9 hPa NNE 10.3 km/h 18.2 km/h 86 % 0 mm 0 W/m2
00:30 -12.6 °C -13.8 °C 34797.9 hPa North 2.6 km/h 18.2 km/h 86 % 0 mm 0 W/m2
00:35 -12.7 °C -13.9 °C 34784.4 hPa NE 5.1 km/h 15.6 km/h 86 % 0 mm 0 W/m2
00:40 -12.7 °C -13.8 °C 34784.4 hPa NNE 5.1 km/h 18.2 km/h 87 % 0 mm 0 W/m2
00:45 -12.7 °C -13.9 °C 34784.4 hPa NNE 5.1 km/h 18.2 km/h 87 % 0 mm 0 W/m2
00:50 -12.8 °C -14 °C 34784.4 hPa NE 18.2 km/h 18.2 km/h 87 % 0 mm 0 W/m2
00:55 -12.9 °C -14 °C 34784.4 hPa Calm   18.2 km/h 88 % 0 mm 0 W/m2
01:00 -12.9 °C -14 °C 34784.4 hPa NE 5.1 km/h 18.2 km/h 88 % 0 mm 0 W/m2
01:05 -12.9 °C -14 °C 34784.4 hPa NNE 12.9 km/h 23.3 km/h 88 % 0 mm 0 W/m2
01:10 -12.9 °C -13.9 °C 34784.4 hPa North 5.1 km/h 23.3 km/h 88 % 0 mm 0 W/m2
01:15 -12.9 °C -14 °C 34784.4 hPa NNE 10.3 km/h 20.8 km/h 87 % 0 mm 0 W/m2
01:20 -12.9 °C -14.1 °C 34784.4 hPa ENE 12.9 km/h 20.8 km/h 87 % 0 mm 0 W/m2
01:25 -12.9 °C -14.1 °C 34784.4 hPa ENE 5.1 km/h 20.8 km/h 87 % 0 mm 0 W/m2
01:30 -13 °C -14.1 °C 34784.4 hPa North 2.6 km/h 15.6 km/h 88 % 0 mm 0 W/m2
01:35 -13 °C -14.1 °C 34784.4 hPa Calm   12.9 km/h 88 % 0 mm 0 W/m2
01:40 -13.2 °C -14.2 °C 34784.4 hPa NE 5.1 km/h 12.9 km/h 88 % 0 mm 0 W/m2
01:45 -13.2 °C -14.2 °C 34784.4 hPa ENE 7.7 km/h 12.9 km/h 88 % 0 mm 0 W/m2
01:50 -13.2 °C -14.2 °C 34784.4 hPa NNE 10.3 km/h 18.2 km/h 89 % 0 mm 0 W/m2
01:55 -13.3 °C -14.3 °C 34784.4 hPa NNE 5.1 km/h 18.2 km/h 88 % 0 mm 0 W/m2
02:00 -13.4 °C -14.3 °C 34784.4 hPa NE 12.9 km/h 18.2 km/h 89 % 0 mm 0 W/m2
02:05 -13.4 °C -14.3 °C 34774.2 hPa ENE 2.6 km/h 20.8 km/h 89 % 0 mm 0 W/m2
02:10 -13.4 °C -14.2 °C 34774.2 hPa ENE 5.1 km/h 20.8 km/h 90 % 0 mm 0 W/m2
02:15 -13.4 °C -14.3 °C 34774.2 hPa ENE 5.1 km/h 12.9 km/h 90 % 0 mm 0 W/m2
02:20 -13.4 °C -14.3 °C 34774.2 hPa NE 7.7 km/h 12.9 km/h 90 % 0 mm 0 W/m2
02:25 -13.5 °C -14.3 °C 34774.2 hPa NE 7.7 km/h 10.3 km/h 90 % 0 mm 0 W/m2
02:30 -13.5 °C -14.4 °C 34774.2 hPa Calm   12.9 km/h 90 % 0 mm 0 W/m2
02:40 -13.6 °C -14.4 °C 34774.2 hPa Calm   10.3 km/h 90 % 0 mm 0 W/m2
02:45 -13.7 °C -14.4 °C 34774.2 hPa Calm   7.7 km/h 91 % 0 mm 0 W/m2
02:50 -13.7 °C -14.5 °C 34774.2 hPa NE 2.6 km/h 12.9 km/h 91 % 0 mm 0 W/m2
02:55 -13.7 °C -14.4 °C 34760.7 hPa ENE 5.1 km/h 12.9 km/h 91 % 0 mm 0 W/m2
03:00 -13.7 °C -14.4 °C 34760.7 hPa Calm   12.9 km/h 91 % 0 mm 0 W/m2
03:05 -13.7 °C -14.5 °C 34760.7 hPa Calm   12.9 km/h 91 % 0 mm 0 W/m2
03:10 -13.7 °C -14.4 °C 34760.7 hPa Calm   12.9 km/h 91 % 0 mm 0 W/m2
03:15 -13.7 °C -14.4 °C 34760.7 hPa ENE 5.1 km/h 12.9 km/h 91 % 0 mm 0 W/m2
03:20 -13.8 °C -14.6 °C 34760.7 hPa Calm   10.3 km/h 90 % 0 mm 0 W/m2
03:25 -13.9 °C -14.7 °C 34760.7 hPa ENE 7.7 km/h 10.3 km/h 91 % 0 mm 0 W/m2
03:30 -13.9 °C -14.7 °C 34760.7 hPa ENE 2.6 km/h 10.3 km/h 91 % 0 mm 0 W/m2
03:35 -14.1 °C -14.8 °C 34760.7 hPa ENE 2.6 km/h 7.7 km/h 91 % 0 mm 0 W/m2
03:40 -14 °C -14.7 °C 34760.7 hPa East 7.7 km/h 10.3 km/h 92 % 0 mm 0 W/m2
03:45 -14.1 °C -14.7 °C 34760.7 hPa East 5.1 km/h 10.3 km/h 92 % 0 mm 0 W/m2
03:50 -14.1 °C -14.7 °C 34760.7 hPa ENE 5.1 km/h 12.9 km/h 92 % 0 mm 0 W/m2
03:55 -14.1 °C -14.7 °C 34760.7 hPa ENE 2.6 km/h 12.9 km/h 92 % 0 mm 0 W/m2
04:00 -14 °C -14.7 °C 34760.7 hPa ENE 2.6 km/h 10.3 km/h 92 % 0 mm 0 W/m2
04:05 -14.1 °C -14.7 °C 34760.7 hPa Calm   10.3 km/h 92 % 0 mm 0 W/m2
04:10 -14.2 °C -14.9 °C 34760.7 hPa Calm   10.3 km/h 92 % 0 mm 0 W/m2
04:15 -14.3 °C -14.9 °C 34750.5 hPa Calm   10.3 km/h 92 % 0 mm 0 W/m2
04:20 -14.3 °C -15 °C 34750.5 hPa Calm   10.3 km/h 92 % 0 mm 0 W/m2
04:25 -14.4 °C -15 °C 34750.5 hPa Calm   10.3 km/h 93 % 0 mm 0 W/m2
04:30 -14.5 °C -15.1 °C 34750.5 hPa Calm   10.3 km/h 93 % 0 mm 0 W/m2
04:35 -14.6 °C -15.1 °C 34750.5 hPa Calm   7.7 km/h 93 % 0 mm 0 W/m2
04:40 -14.6 °C -15.2 °C 34750.5 hPa Calm   7.7 km/h 93 % 0 mm 0 W/m2
04:45 -14.7 °C -15.3 °C 34750.5 hPa Calm   7.7 km/h 93 % 0 mm 0 W/m2
04:50 -14.6 °C -15.1 °C 34750.5 hPa ENE 2.6 km/h 10.3 km/h 94 % 0 mm 0 W/m2
04:55 -14.7 °C -15.2 °C 34750.5 hPa Calm   10.3 km/h 94 % 0 mm 0 W/m2
05:00 -14.8 °C -15.2 °C 34750.5 hPa Calm   7.7 km/h 94 % 0 mm 0 W/m2
05:05 -14.8 °C -15.3 °C 34750.5 hPa Calm   5.1 km/h 94 % 0 mm 0 W/m2
05:10 -14.9 °C -15.4 °C 34750.5 hPa Calm   10.3 km/h 94 % 0 mm 0 W/m2
05:15 -14.9 °C -15.4 °C 34750.5 hPa NE 2.6 km/h 10.3 km/h 94 % 0 mm 0 W/m2
05:20 -14.9 °C -15.4 °C 34750.5 hPa Calm   5.1 km/h 94 % 0 mm 0 W/m2
05:25 -14.9 °C -15.4 °C 34750.5 hPa Calm   7.7 km/h 94 % 0 mm 0 W/m2
05:30 -14.9 °C -15.3 °C 34750.5 hPa Calm   7.7 km/h 95 % 0 mm 0 W/m2
05:35 -15.1 °C -15.6 °C 34750.5 hPa Calm   7.7 km/h 94 % 0 mm 0 W/m2
05:40 -15.1 °C -15.6 °C 34750.5 hPa Calm   7.7 km/h 94 % 0 mm 0 W/m2
05:45 -15.2 °C -15.7 °C 34750.5 hPa Calm   5.1 km/h 94 % 0 mm 0 W/m2
05:50 -15.2 °C -15.7 °C 34750.5 hPa ENE 2.6 km/h 7.7 km/h 95 % 0 mm 0 W/m2
05:55 -15.2 °C -15.7 °C 34750.5 hPa Calm   7.7 km/h 95 % 0 mm 0 W/m2
06:00 -15.3 °C -15.7 °C 34750.5 hPa Calm   5.1 km/h 95 % 0 mm 0 W/m2
06:05 -15.3 °C -15.7 °C 34750.5 hPa Calm   2.6 km/h 95 % 0 mm 0 W/m2
06:10 -15.3 °C -15.7 °C 34740.4 hPa Calm   2.6 km/h 95 % 0 mm 0 W/m2
06:15 -15.3 °C -15.7 °C 34740.4 hPa ENE 5.1 km/h 5.1 km/h 95 % 0 mm 0 W/m2
06:20 -15.3 °C -15.7 °C 34740.4 hPa ENE 5.1 km/h 5.1 km/h 95 % 0 mm 0 W/m2
06:25 -15.3 °C -15.7 °C 34740.4 hPa Calm   5.1 km/h 95 % 0 mm 0 W/m2
06:30 -15.2 °C -15.7 °C 34740.4 hPa ENE 5.1 km/h 5.1 km/h 95 % 0 mm 0 W/m2
06:35 -15.2 °C -15.6 °C 34740.4 hPa ENE 2.6 km/h 7.7 km/h 95 % 0 mm 0 W/m2
06:40 -15.3 °C -15.7 °C 34740.4 hPa Calm   7.7 km/h 95 % 0 mm 0 W/m2
06:45 -15.2 °C -15.6 °C 34740.4 hPa Calm   5.1 km/h 95 % 0 mm 0 W/m2
06:50 -15.3 °C -15.7 °C 34740.4 hPa Calm   5.1 km/h 95 % 0 mm 0 W/m2
06:55 -15.4 °C -15.8 °C 34740.4 hPa Calm   2.6 km/h 95 % 0 mm 0 W/m2
07:00 -15.5 °C -15.9 °C 34740.4 hPa Calm   5.1 km/h 95 % 0 mm 0 W/m2
07:05 -15.6 °C -15.9 °C 34740.4 hPa Calm   5.1 km/h 95 % 0 mm 0 W/m2
07:10 -15.7 °C -16.1 °C 34740.4 hPa ENE 7.7 km/h 7.7 km/h 95 % 0 mm 0 W/m2
07:15 -15.6 °C -15.9 °C 34740.4 hPa ENE 2.6 km/h 7.7 km/h 96 % 0 mm 0 W/m2
07:20 -15.4 °C -15.8 °C 34740.4 hPa East 5.1 km/h 7.7 km/h 96 % 0 mm 0 W/m2
07:25 -15.4 °C -15.7 °C 34740.4 hPa East 5.1 km/h 7.7 km/h 96 % 0 mm 0 W/m2
07:30 -15.3 °C -15.6 °C 34740.4 hPa Calm   10.3 km/h 96 % 0 mm 0 W/m2
07:35 -15.3 °C -15.6 °C 34740.4 hPa ENE 5.1 km/h 10.3 km/h 96 % 0 mm 0 W/m2
07:40 -15.3 °C -15.7 °C 34740.4 hPa ENE 5.1 km/h 7.7 km/h 95 % 0 mm 5 W/m2
07:45 -15.3 °C -15.7 °C 34740.4 hPa ENE 7.7 km/h 7.7 km/h 95 % 0 mm 7 W/m2
07:50 -15.2 °C -15.5 °C 34740.4 hPa East 5.1 km/h 12.9 km/h 96 % 0 mm 11 W/m2
07:55 -15.1 °C -15.6 °C 34740.4 hPa East 5.1 km/h 12.9 km/h 95 % 0 mm 14 W/m2
08:00 -15.1 °C -15.6 °C 34740.4 hPa East 5.1 km/h 12.9 km/h 95 % 0 mm 18 W/m2
08:05 -15.1 °C -15.5 °C 34740.4 hPa ENE 7.7 km/h 12.9 km/h 95 % 0 mm 21 W/m2
08:10 -15.1 °C -15.4 °C 34750.5 hPa ENE 5.1 km/h 12.9 km/h 95 % 0 mm 25 W/m2
08:15 -14.9 °C -15.3 °C 34750.5 hPa East 5.1 km/h 10.3 km/h 95 % 0 mm 28 W/m2
08:20 -14.9 °C -15.3 °C 34750.5 hPa East 5.1 km/h 10.3 km/h 95 % 0 mm 30 W/m2
08:25 -14.9 °C -15.4 °C 34750.5 hPa ENE 2.6 km/h 10.3 km/h 94 % 0 mm 35 W/m2
08:30 -15 °C -15.4 °C 34750.5 hPa ENE 7.7 km/h 12.9 km/h 95 % 0 mm 39 W/m2
08:35 -14.8 °C -15.3 °C 34750.5 hPa ENE 5.1 km/h 12.9 km/h 95 % 0 mm 98 W/m2
08:40 -14.7 °C -15.1 °C 34750.5 hPa Calm   12.9 km/h 95 % 0 mm 114 W/m2
08:45 -14.6 °C -15 °C 34750.5 hPa Calm   12.9 km/h 95 % 0 mm 130 W/m2
08:50 -14.5 °C -14.9 °C 34750.5 hPa ENE 10.3 km/h 12.9 km/h 95 % 0 mm 146 W/m2
08:55 -14.3 °C -14.7 °C 34750.5 hPa ENE 2.6 km/h 12.9 km/h 95 % 0 mm 162 W/m2
09:00 -14.1 °C -14.6 °C 34750.5 hPa ENE 2.6 km/h 12.9 km/h 94 % 0 mm 176 W/m2
09:05 -14 °C -14.6 °C 34750.5 hPa ENE 2.6 km/h 12.9 km/h 93 % 0 mm 197 W/m2
09:10 -13.8 °C -14.4 °C 34750.5 hPa East 7.7 km/h 12.9 km/h 93 % 0 mm 214 W/m2
09:15 -13.7 °C -14.4 °C 34750.5 hPa East 10.3 km/h 12.9 km/h 92 % 0 mm 232 W/m2
09:20 -13.5 °C -14.3 °C 34750.5 hPa NE 5.1 km/h 18.2 km/h 91 % 0 mm 250 W/m2
09:25 -13.4 °C -14.2 °C 34750.5 hPa NNE 5.1 km/h 18.2 km/h 90 % 0 mm 267 W/m2
09:30 -13.2 °C -14.2 °C 34750.5 hPa East 5.1 km/h 18.2 km/h 89 % 0 mm 279 W/m2
09:35 -13 °C -14.1 °C 34750.5 hPa ENE 10.3 km/h 15.6 km/h 88 % 0 mm 295 W/m2
09:40 -12.8 °C -13.9 °C 34750.5 hPa ENE 20.8 km/h 20.8 km/h 87 % 0 mm 309 W/m2
09:45 -12.7 °C -14 °C 34750.5 hPa NE 5.1 km/h 20.8 km/h 85 % 0 mm 323 W/m2
09:50 -12.6 °C -14.1 °C 34750.5 hPa ENE 7.7 km/h 20.8 km/h 83 % 0 mm 338 W/m2
09:55 -12.4 °C -14.1 °C 34750.5 hPa ENE 12.9 km/h 23.3 km/h 82 % 0 mm 355 W/m2
10:00 -12.2 °C -13.8 °C 34750.5 hPa ENE 5.1 km/h 23.3 km/h 82 % 0 mm 366 W/m2
10:05 -12 °C -13.8 °C 34750.5 hPa East 18.2 km/h 20.8 km/h 80 % 0 mm 381 W/m2
10:10 -11.9 °C -13.9 °C 34750.5 hPa East 5.1 km/h 25.9 km/h 78 % 0 mm 397 W/m2
10:15 -11.9 °C -14.2 °C 34750.5 hPa East 12.9 km/h 33.6 km/h 76 % 0 mm 411 W/m2
10:20 -11.9 °C -14.2 °C 34750.5 hPa ENE 5.1 km/h 33.6 km/h 76 % 0 mm 425 W/m2
10:25 -11.8 °C -13.9 °C 34750.5 hPa ENE 7.7 km/h 28.5 km/h 77 % 0 mm 439 W/m2
10:30 -11.6 °C -13.8 °C 34750.5 hPa East 15.6 km/h 28.5 km/h 76 % 0 mm 457 W/m2
10:35 -11.4 °C -13.9 °C 34750.5 hPa ENE 7.7 km/h 28.5 km/h 74 % 0 mm 469 W/m2
10:40 -11.2 °C -13.8 °C 34740.4 hPa ENE 12.9 km/h 23.3 km/h 73 % 0 mm 482 W/m2
10:45 -11.2 °C -13.7 °C 34740.4 hPa NE 15.6 km/h 25.9 km/h 73 % 0 mm 494 W/m2
10:50 -10.9 °C -13.7 °C 34750.5 hPa ESE 15.6 km/h 25.9 km/h 72 % 0 mm 510 W/m2
10:55 -10.9 °C -13.9 °C 34740.4 hPa ENE 7.7 km/h 33.6 km/h 70 % 0 mm 526 W/m2
11:00 -10.8 °C -13.9 °C 34740.4 hPa SE 10.3 km/h 33.6 km/h 68 % 0 mm 536 W/m2
11:05 -10.7 °C -13.9 °C 34740.4 hPa East 15.6 km/h 33.6 km/h 68 % 0 mm 550 W/m2
11:10 -10.6 °C -13.9 °C 34740.4 hPa ENE 18.2 km/h 33.6 km/h 67 % 0 mm 566 W/m2
11:15 -10.4 °C -13.8 °C 34740.4 hPa SE 10.3 km/h 33.6 km/h 67 % 0 mm 575 W/m2
11:20 -10.4 °C -13.6 °C 34740.4 hPa NNE 10.3 km/h 33.6 km/h 68 % 0 mm 580 W/m2
11:25 -10.3 °C -13.8 °C 34740.4 hPa East 12.9 km/h 33.6 km/h 66 % 0 mm 598 W/m2
11:30 -10.2 °C -13.6 °C 34740.4 hPa East 25.9 km/h 33.6 km/h 67 % 0 mm 608 W/m2
11:35 -10.2 °C -13.7 °C 34740.4 hPa East 25.9 km/h 36.2 km/h 66 % 0 mm 621 W/m2
11:40 -10.2 °C -13.7 °C 34740.4 hPa ENE 23.3 km/h 36.2 km/h 66 % 0 mm 629 W/m2
11:45 -10.2 °C -13.8 °C 34740.4 hPa East 12.9 km/h 44.1 km/h 65 % 0 mm 635 W/m2
11:50 -10.1 °C -13.6 °C 34740.4 hPa ENE 23.3 km/h 44.1 km/h 66 % 0 mm 650 W/m2
11:55 -9.9 °C -13.8 °C 34740.4 hPa NE 33.6 km/h 38.8 km/h 63 % 0 mm 659 W/m2
12:00 -10.1 °C -13.9 °C 34740.4 hPa ESE 28.5 km/h 46.7 km/h 63 % 0 mm 668 W/m2
12:05 -10.1 °C -13.9 °C 34726.8 hPa East 12.9 km/h 46.7 km/h 63 % 0 mm 680 W/m2
12:10 -9.7 °C -13.3 °C 34740.4 hPa ESE 18.2 km/h 36.2 km/h 65 % 0 mm 689 W/m2
12:15 -9.6 °C -13.7 °C 34726.8 hPa ENE 28.5 km/h 38.8 km/h 61 % 0 mm 698 W/m2
12:20 -9.6 °C -13.4 °C 34726.8 hPa NE 20.8 km/h 41.4 km/h 64 % 0 mm 703 W/m2
12:25 -9.7 °C -13.6 °C 34726.8 hPa East 5.1 km/h 41.4 km/h 63 % 0 mm 714 W/m2
12:30 -9.6 °C -13.6 °C 34726.8 hPa ENE 25.9 km/h 38.8 km/h 62 % 0 mm 717 W/m2
12:35 -9.3 °C -12.9 °C 34726.8 hPa NNE 25.9 km/h 36.2 km/h 65 % 0 mm 721 W/m2
12:40 -9.4 °C -13.9 °C 34726.8 hPa ESE 12.9 km/h 38.8 km/h 59 % 0 mm 735 W/m2
12:45 -9.4 °C -13.3 °C 34726.8 hPa ESE 18.2 km/h 38.8 km/h 63 % 0 mm 744 W/m2
12:50 -9.3 °C -13.5 °C 34726.8 hPa ENE 2.6 km/h 41.4 km/h 61 % 0 mm 742 W/m2
12:55 -9.1 °C -13.1 °C 34726.8 hPa ESE 12.9 km/h 41.4 km/h 62 % 0 mm 749 W/m2
13:00 -9.1 °C -13.3 °C 34726.8 hPa ENE 12.9 km/h 38.8 km/h 61 % 0 mm 756 W/m2
13:05 -9.3 °C -13.8 °C 34716.7 hPa ESE 18.2 km/h 44.1 km/h 58 % 0 mm 761 W/m2
13:10 -9 °C -13.3 °C 34716.7 hPa East 23.3 km/h 44.1 km/h 60 % 0 mm 761 W/m2
13:15 -9.2 °C -13.7 °C 34716.7 hPa ENE 18.2 km/h 41.4 km/h 58 % 0 mm 766 W/m2
13:20 -9 °C -13.2 °C 34716.7 hPa East 18.2 km/h 41.4 km/h 61 % 0 mm 766 W/m2
13:25 -8.9 °C -13.3 °C 34716.7 hPa East 18.2 km/h 38.8 km/h 60 % 0 mm 777 W/m2
13:30 -8.9 °C -13.4 °C 34716.7 hPa East 12.9 km/h 38.8 km/h 59 % 0 mm 777 W/m2
13:35 -8.7 °C -13.4 °C 34716.7 hPa East 23.3 km/h 38.8 km/h 57 % 0 mm 779 W/m2
13:40 -8.7 °C -13.2 °C 34716.7 hPa East 7.7 km/h 41.4 km/h 59 % 0 mm 784 W/m2
13:45 -8.6 °C -12.9 °C 34703.1 hPa East 12.9 km/h 41.4 km/h 60 % 0 mm 784 W/m2
13:50 -8.6 °C -13.6 °C 34703.1 hPa NE 12.9 km/h 41.4 km/h 55 % 0 mm 782 W/m2
13:55 -8.5 °C -12.9 °C 34703.1 hPa East 5.1 km/h 41.4 km/h 59 % 0 mm 784 W/m2
14:00 -8.2 °C -13.3 °C 34703.1 hPa ESE 12.9 km/h 28.5 km/h 55 % 0 mm 789 W/m2
14:05 -8.4 °C -13 °C 34703.1 hPa NE 12.9 km/h 36.2 km/h 58 % 0 mm 786 W/m2
14:10 -8.4 °C -12.9 °C 34703.1 hPa NE 18.2 km/h 36.2 km/h 59 % 0 mm 784 W/m2
14:15 -8.2 °C -12.9 °C 34703.1 hPa NE 18.2 km/h 36.2 km/h 58 % 0 mm 779 W/m2
14:20 -8.2 °C -12.7 °C 34703.1 hPa NE 12.9 km/h 36.2 km/h 59 % 0 mm 784 W/m2
14:25 -8.2 °C -12.9 °C 34693 hPa ENE 12.9 km/h 33.6 km/h 58 % 0 mm 782 W/m2
14:30 -8.2 °C -13 °C 34693 hPa NE 15.6 km/h 33.6 km/h 57 % 0 mm 782 W/m2
14:35 -8.2 °C -13.1 °C 34693 hPa ENE 10.3 km/h 33.6 km/h 56 % 0 mm 779 W/m2
14:40 -8 °C -12.7 °C 34693 hPa East 15.6 km/h 33.6 km/h 58 % 0 mm 766 W/m2
14:45 -7.8 °C -12.7 °C 34693 hPa East 7.7 km/h 33.6 km/h 56 % 0 mm 768 W/m2
14:50 -7.9 °C -12.7 °C 34693 hPa NE 31.1 km/h 36.2 km/h 57 % 0 mm 766 W/m2
14:55 -7.9 °C -13.2 °C 34682.8 hPa East 20.8 km/h 49.2 km/h 54 % 0 mm 761 W/m2
15:00 -7.6 °C -12.4 °C 34682.8 hPa NE 10.3 km/h 49.2 km/h 57 % 0 mm 763 W/m2
15:05 -7.7 °C -13.2 °C 34682.8 hPa East 15.6 km/h 36.2 km/h 53 % 0 mm 758 W/m2
15:10 -7.7 °C -13.2 °C 34682.8 hPa ENE 28.5 km/h 36.2 km/h 53 % 0 mm 749 W/m2
15:15 -7.8 °C -12.9 °C 34682.8 hPa ENE 18.2 km/h 36.2 km/h 55 % 0 mm 744 W/m2
15:20 -7.6 °C -12.6 °C 34682.8 hPa East 15.6 km/h 36.2 km/h 56 % 0 mm 738 W/m2
15:25 -7.6 °C -12.8 °C 34682.8 hPa NE 2.6 km/h 33.6 km/h 54 % 0 mm 735 W/m2
15:30 -7.6 °C -13 °C 34682.8 hPa East 12.9 km/h 33.6 km/h 53 % 0 mm 721 W/m2
15:35 -7.7 °C -12.7 °C 34682.8 hPa SE 20.8 km/h 31.1 km/h 56 % 0 mm 721 W/m2
15:40 -7.6 °C -13.1 °C 34682.8 hPa ENE 12.9 km/h 33.6 km/h 52 % 0 mm 715 W/m2
15:45 -7.6 °C -12.9 °C 34682.8 hPa ENE 10.3 km/h 33.6 km/h 54 % 0 mm 701 W/m2
15:50 -7.5 °C -13.1 °C 34669.3 hPa NE 2.6 km/h 28.5 km/h 52 % 0 mm 700 W/m2
15:55 -7.4 °C -12.8 °C 34669.3 hPa ENE 23.3 km/h 33.6 km/h 53 % 0 mm 686 W/m2
16:00 -7.3 °C -12.8 °C 34669.3 hPa ENE 18.2 km/h 33.6 km/h 53 % 0 mm 682 W/m2
16:05 -7.3 °C -12.8 °C 34669.3 hPa ESE 7.7 km/h 28.5 km/h 53 % 0 mm 671 W/m2
16:10 -7.3 °C -12.9 °C 34669.3 hPa ENE 23.3 km/h 31.1 km/h 52 % 0 mm 661 W/m2
16:15 -7.4 °C -12.8 °C 34669.3 hPa East 15.6 km/h 36.2 km/h 53 % 0 mm 652 W/m2
16:20 -7.4 °C -12.5 °C 34659.1 hPa ENE 12.9 km/h 36.2 km/h 55 % 0 mm 647 W/m2
16:25 -7.3 °C -12.4 °C 34659.1 hPa NE 18.2 km/h 25.9 km/h 55 % 0 mm 635 W/m2
16:30 -7.2 °C -12.8 °C 34659.1 hPa ENE 10.3 km/h 36.2 km/h 52 % 0 mm 624 W/m2
16:35 -7.3 °C -12.8 °C 34659.1 hPa East 12.9 km/h 36.2 km/h 53 % 0 mm 615 W/m2
16:40 -7.3 °C -13.1 °C 34659.1 hPa ENE 18.2 km/h 36.2 km/h 51 % 0 mm 603 W/m2
16:45 -7.3 °C -12.7 °C 34645.6 hPa ENE 2.6 km/h 36.2 km/h 53 % 0 mm 591 W/m2
16:50 -7.1 °C -12.9 °C 34645.6 hPa NE 5.1 km/h 31.1 km/h 51 % 0 mm 584 W/m2
16:55 -7.1 °C -13.1 °C 34645.6 hPa ENE 7.7 km/h 31.1 km/h 50 % 0 mm 573 W/m2
17:00 -7.3 °C -13.2 °C 34645.6 hPa East 15.6 km/h 36.2 km/h 50 % 0 mm 561 W/m2
17:05 -7.2 °C -12.6 °C 34645.6 hPa ENE 20.8 km/h 36.2 km/h 53 % 0 mm 548 W/m2
17:10 -7.2 °C -13.1 °C 34645.6 hPa East 20.8 km/h 33.6 km/h 50 % 0 mm 536 W/m2
17:15 -7.3 °C -13.1 °C 34635.4 hPa ENE 18.2 km/h 36.2 km/h 51 % 0 mm 524 W/m2
17:20 -7.3 °C -12.8 °C 34635.4 hPa Calm   36.2 km/h 52 % 0 mm 508 W/m2
17:25 -7.2 °C -12.8 °C 34635.4 hPa ENE 18.2 km/h 31.1 km/h 52 % 0 mm 496 W/m2
17:30 -7.2 °C -12.8 °C 34635.4 hPa ESE 18.2 km/h 31.1 km/h 52 % 0 mm 489 W/m2
17:35 -7.2 °C -13 °C 34635.4 hPa East 18.2 km/h 33.6 km/h 51 % 0 mm 360 W/m2
17:40 -7.2 °C -12.6 °C 34635.4 hPa ESE 23.3 km/h 33.6 km/h 53 % 0 mm 455 W/m2
17:45 -7.3 °C -12.4 °C 34635.4 hPa East 15.6 km/h 25.9 km/h 55 % 0 mm 406 W/m2
17:50 -7.3 °C -12.9 °C 34635.4 hPa East 20.8 km/h 31.1 km/h 52 % 0 mm 410 W/m2
17:55 -7.3 °C -12.9 °C 34635.4 hPa East 23.3 km/h 31.1 km/h 52 % 0 mm 413 W/m2
18:00 -7.4 °C -12.5 °C 34635.4 hPa ENE 10.3 km/h 31.1 km/h 55 % 0 mm 202 W/m2
18:05 -7.3 °C -12.8 °C 34635.4 hPa East 7.7 km/h 25.9 km/h 53 % 0 mm 179 W/m2
18:10 -7.4 °C -12.8 °C 34635.4 hPa ESE 18.2 km/h 31.1 km/h 53 % 0 mm 369 W/m2
18:15 -7.4 °C -12.9 °C 34625.2 hPa NE 7.7 km/h 31.1 km/h 52 % 0 mm 359 W/m2
18:20 -7.4 °C -13.1 °C 34635.4 hPa ESE 2.6 km/h 25.9 km/h 51 % 0 mm 341 W/m2
18:25 -7.4 °C -12.9 °C 34625.2 hPa Calm   28.5 km/h 52 % 0 mm 327 W/m2
18:30 -7.3 °C -12.6 °C 34625.2 hPa ENE 12.9 km/h 28.5 km/h 54 % 0 mm 313 W/m2
18:35 -7.3 °C -12.8 °C 34625.2 hPa ESE 15.6 km/h 28.5 km/h 53 % 0 mm 297 W/m2
18:40 -7.3 °C -12.6 °C 34625.2 hPa ENE 7.7 km/h 28.5 km/h 54 % 0 mm 281 W/m2
18:45 -7.3 °C -12.5 °C 34625.2 hPa East 18.2 km/h 25.9 km/h 55 % 0 mm 269 W/m2
18:50 -7.3 °C -12.6 °C 34625.2 hPa East 10.3 km/h 25.9 km/h 54 % 0 mm 171 W/m2
18:55 -7.4 °C -12.6 °C 34625.2 hPa East 7.7 km/h 28.5 km/h 55 % 0 mm 56 W/m2
19:00 -7.4 °C -12.7 °C 34625.2 hPa ENE 18.2 km/h 28.5 km/h 54 % 0 mm 53 W/m2
19:05 -7.6 °C -12.7 °C 34625.2 hPa East 15.6 km/h 23.3 km/h 55 % 0 mm 51 W/m2
19:10 -7.6 °C -12.7 °C 34625.2 hPa East 20.8 km/h 25.9 km/h 55 % 0 mm 49 W/m2
19:15 -7.7 °C -12.5 °C 34625.2 hPa ENE 5.1 km/h 25.9 km/h 57 % 0 mm 51 W/m2
19:20 -7.8 °C -12.7 °C 34625.2 hPa ENE 10.3 km/h 28.5 km/h 57 % 0 mm 47 W/m2
19:25 -7.9 °C -12.6 °C 34625.2 hPa ENE 23.3 km/h 28.5 km/h 58 % 0 mm 67 W/m2
19:30 -7.9 °C -12.6 °C 34625.2 hPa NE 2.6 km/h 25.9 km/h 58 % 0 mm 46 W/m2
19:35 -7.9 °C -12.6 °C 34625.2 hPa East 12.9 km/h 25.9 km/h 58 % 0 mm 49 W/m2
19:40 -8 °C -12.6 °C 34625.2 hPa ESE 7.7 km/h 20.8 km/h 59 % 0 mm 39 W/m2
19:45 -8.2 °C -12.5 °C 34625.2 hPa East 18.2 km/h 20.8 km/h 60 % 0 mm 37 W/m2
19:50 -8.2 °C -12.4 °C 34625.2 hPa NNE 12.9 km/h 23.3 km/h 61 % 0 mm 33 W/m2
19:55 -8.2 °C -12.4 °C 34625.2 hPa ENE 12.9 km/h 28.5 km/h 61 % 0 mm 33 W/m2
20:00 -8.3 °C -12.4 °C 34625.2 hPa East 5.1 km/h 28.5 km/h 62 % 0 mm 28 W/m2
20:05 -8.4 °C -12.5 °C 34625.2 hPa NE 12.9 km/h 20.8 km/h 62 % 0 mm 26 W/m2
20:10 -8.5 °C -12.4 °C 34625.2 hPa East 7.7 km/h 20.8 km/h 63 % 0 mm 25 W/m2
20:15 -8.7 °C -12.4 °C 34625.2 hPa East 5.1 km/h 18.2 km/h 65 % 0 mm 21 W/m2
20:20 -8.9 °C -12.4 °C 34625.2 hPa East 5.1 km/h 12.9 km/h 66 % 0 mm 18 W/m2
20:25 -9 °C -12.4 °C 34625.2 hPa ENE 5.1 km/h 20.8 km/h 67 % 0 mm 16 W/m2
20:30 -9.2 °C -12.4 °C 34625.2 hPa Calm   20.8 km/h 68 % 0 mm 12 W/m2
20:35 -9.3 °C -12.4 °C 34625.2 hPa ENE 2.6 km/h 18.2 km/h 69 % 0 mm 9 W/m2
20:40 -9.5 °C -12.5 °C 34625.2 hPa NE 5.1 km/h 18.2 km/h 70 % 0 mm 7 W/m2
20:45 -9.7 °C -12.6 °C 34625.2 hPa Calm   18.2 km/h 71 % 0 mm 5 W/m2
20:50 -9.7 °C -12.5 °C 34625.2 hPa ENE 2.6 km/h 12.9 km/h 72 % 0 mm 0 W/m2
20:55 -9.8 °C -12.6 °C 34625.2 hPa NE 7.7 km/h 12.9 km/h 72 % 0 mm 0 W/m2
21:00 -10.1 °C -12.6 °C 34625.2 hPa Calm   10.3 km/h 74 % 0 mm 0 W/m2
21:05 -10.2 °C -12.7 °C 34625.2 hPa East 2.6 km/h 12.9 km/h 74 % 0 mm 0 W/m2
21:10 -10.2 °C -12.6 °C 34625.2 hPa NE 2.6 km/h 12.9 km/h 75 % 0 mm 0 W/m2
21:15 -10.3 °C -12.7 °C 34625.2 hPa NE 5.1 km/h 10.3 km/h 75 % 0 mm 0 W/m2
21:20 -10.4 °C -12.7 °C 34625.2 hPa ENE 5.1 km/h 10.3 km/h 76 % 0 mm 0 W/m2
21:25 -10.4 °C -12.6 °C 34625.2 hPa ENE 7.7 km/h 12.9 km/h 77 % 0 mm 0 W/m2
21:30 -10.3 °C -12.6 °C 34625.2 hPa ENE 5.1 km/h 12.9 km/h 76 % 0 mm 0 W/m2
21:35 -10.3 °C -12.7 °C 34625.2 hPa ENE 5.1 km/h 12.9 km/h 76 % 0 mm 0 W/m2
21:40 -10.3 °C -12.7 °C 34625.2 hPa NE 5.1 km/h 15.6 km/h 76 % 0 mm 0 W/m2
21:45 -10.4 °C -12.7 °C 34635.4 hPa East 12.9 km/h 18.2 km/h 76 % 0 mm 0 W/m2
21:50 -10.3 °C -12.7 °C 34635.4 hPa East 2.6 km/h 18.2 km/h 76 % 0 mm 0 W/m2
21:55 -10.4 °C -12.7 °C 34635.4 hPa East 7.7 km/h 15.6 km/h 76 % 0 mm 0 W/m2
22:00 -10.4 °C -12.7 °C 34635.4 hPa Calm   18.2 km/h 76 % 0 mm 0 W/m2
22:10 -10.5 °C -12.8 °C 34635.4 hPa ENE 5.1 km/h 12.9 km/h 76 % 0 mm 0 W/m2
22:15 -10.4 °C -12.7 °C 34635.4 hPa ENE 7.7 km/h 15.6 km/h 76 % 0 mm 0 W/m2
22:20 -10.5 °C -12.9 °C 34635.4 hPa ENE 5.1 km/h 15.6 km/h 75 % 0 mm 0 W/m2
22:25 -10.5 °C -12.8 °C 34635.4 hPa East 2.6 km/h 12.9 km/h 76 % 0 mm 0 W/m2
22:30 -10.6 °C -12.8 °C 34635.4 hPa ENE 5.1 km/h 15.6 km/h 76 % 0 mm 0 W/m2
22:35 -10.7 °C -12.9 °C 34635.4 hPa ENE 7.7 km/h 15.6 km/h 77 % 0 mm 0 W/m2
22:40 -10.7 °C -12.9 °C 34635.4 hPa ENE 5.1 km/h 12.9 km/h 77 % 0 mm 0 W/m2
22:45 -10.7 °C -12.9 °C 34635.4 hPa East 7.7 km/h 12.9 km/h 77 % 0 mm 0 W/m2
22:50 -10.8 °C -12.9 °C 34635.4 hPa ENE 10.3 km/h 18.2 km/h 78 % 0 mm 0 W/m2
22:55 -10.9 °C -13 °C 34635.4 hPa ENE 5.1 km/h 18.2 km/h 78 % 0 mm 0 W/m2
23:00 -11.1 °C -13.1 °C 34635.4 hPa Calm   12.9 km/h 79 % 0 mm 0 W/m2
23:05 -11.1 °C -12.9 °C 34635.4 hPa ENE 5.1 km/h 10.3 km/h 80 % 0 mm 0 W/m2
23:10 -11.2 °C -13.1 °C 34635.4 hPa East 5.1 km/h 10.3 km/h 80 % 0 mm 0 W/m2
23:15 -11.2 °C -13.1 °C 34635.4 hPa ENE 5.1 km/h 15.6 km/h 80 % 0 mm 0 W/m2
23:20 -11.3 °C -13.1 °C 34635.4 hPa ENE 2.6 km/h 15.6 km/h 81 % 0 mm 0 W/m2
23:25 -11.4 °C -13.1 °C 34635.4 hPa East 7.7 km/h 12.9 km/h 81 % 0 mm 0 W/m2
23:30 -11.5 °C -13.2 °C 34635.4 hPa ENE 2.6 km/h 12.9 km/h 82 % 0 mm 0 W/m2
23:35 -11.6 °C -13.2 °C 34635.4 hPa NE 5.1 km/h 12.9 km/h 83 % 0 mm 0 W/m2
23:40 -11.8 °C -13.3 °C 34635.4 hPa ENE 2.6 km/h 12.9 km/h 83 % 0 mm 0 W/m2
23:45 -11.8 °C -13.3 °C 34625.2 hPa ENE 10.3 km/h 12.9 km/h 84 % 0 mm 0 W/m2
23:50 -11.8 °C -13.3 °C 34625.2 hPa ENE 5.1 km/h 12.9 km/h 84 % 0 mm 0 W/m2
23:55 -11.7 °C -13.2 °C 34625.2 hPa East 7.7 km/h 15.6 km/h 84 % 0 mm 0 W/m2
Avec l'autorisation de Weather Underground - 1.75 mb